sensor_id;sensor_type;location;lat;lon;timestamp;pressure;altitude;pressure_sealevel;temperature;humidity
70458;BME280;57919;56.194;95.716;2023-06-05T00:01:38;99118.41;;;19.56;52.41
70458;BME280;57919;56.194;95.716;2023-06-05T00:11:40;99100.81;;;19.93;50.84
70458;BME280;57919;56.194;95.716;2023-06-05T00:21:42;99090.28;;;20.87;48.52
70458;BME280;57919;56.194;95.716;2023-06-05T00:31:44;99080.38;;;21.67;47.30
70458;BME280;57919;56.194;95.716;2023-06-05T00:41:47;99090.94;;;22.69;45.35
70458;BME280;57919;56.194;95.716;2023-06-05T00:51:50;99088.78;;;23.35;43.69
70458;BME280;57919;56.194;95.716;2023-06-05T01:01:52;99088.78;;;24.30;42.79
70458;BME280;57919;56.194;95.716;2023-06-05T01:12:11;99092.59;;;25.57;40.86
70458;BME280;57919;56.194;95.716;2023-06-05T01:22:13;99075.31;;;26.15;38.96
70458;BME280;57919;56.194;95.716;2023-06-05T01:32:40;99076.41;;;28.09;36.37
70458;BME280;57919;56.194;95.716;2023-06-05T01:42:40;99068.47;;;29.82;33.48
70458;BME280;57919;56.194;95.716;2023-06-05T01:52:44;99058.09;;;30.74;32.26
70458;BME280;57919;56.194;95.716;2023-06-05T02:02:49;99055.13;;;31.63;30.70
70458;BME280;57919;56.194;95.716;2023-06-05T02:12:51;99044.25;;;31.82;31.49
70458;BME280;57919;56.194;95.716;2023-06-05T02:22:54;99035.28;;;31.70;30.43
70458;BME280;57919;56.194;95.716;2023-06-05T02:32:56;99020.47;;;31.74;29.13
70458;BME280;57919;56.194;95.716;2023-06-05T02:43:03;99011.53;;;32.28;29.07
70458;BME280;57919;56.194;95.716;2023-06-05T02:53:08;99009.28;;;31.69;28.67
70458;BME280;57919;56.194;95.716;2023-06-05T03:03:12;98977.91;;;31.62;27.57
70458;BME280;57919;56.194;95.716;2023-06-05T03:13:15;98970.63;;;32.37;26.49
70458;BME280;57919;56.194;95.716;2023-06-05T03:23:18;98935.78;;;32.74;25.43
70458;BME280;57919;56.194;95.716;2023-06-05T03:33:20;98931.44;;;33.07;25.04
70458;BME280;57919;56.194;95.716;2023-06-05T03:43:25;98930.66;;;31.81;26.66
70458;BME280;57919;56.194;95.716;2023-06-05T03:53:28;98917.53;;;30.11;27.87
70458;BME280;57919;56.194;95.716;2023-06-05T04:03:32;98909.19;;;30.16;27.85
70458;BME280;57919;56.194;95.716;2023-06-05T04:13:34;98890.28;;;30.28;28.32
70458;BME280;57919;56.194;95.716;2023-06-05T04:23:39;98867.72;;;31.78;26.05
70458;BME280;57919;56.194;95.716;2023-06-05T04:33:43;98841.25;;;32.40;25.41
70458;BME280;57919;56.194;95.716;2023-06-05T04:43:44;98818.28;;;32.38;25.17
70458;BME280;57919;56.194;95.716;2023-06-05T04:53:47;98802.06;;;32.35;24.98
70458;BME280;57919;56.194;95.716;2023-06-05T05:03:52;98778.19;;;31.78;25.40
70458;BME280;57919;56.194;95.716;2023-06-05T05:13:56;98744.34;;;32.39;25.94
70458;BME280;57919;56.194;95.716;2023-06-05T05:23:58;98725.34;;;33.44;23.99
70458;BME280;57919;56.194;95.716;2023-06-05T05:34:01;98721.22;;;34.08;23.93
70458;BME280;57919;56.194;95.716;2023-06-05T05:44:04;98708.22;;;34.73;23.02
70458;BME280;57919;56.194;95.716;2023-06-05T05:54:07;98686.25;;;34.94;22.80
70458;BME280;57919;56.194;95.716;2023-06-05T06:04:09;98670.94;;;34.49;22.50
70458;BME280;57919;56.194;95.716;2023-06-05T06:14:11;98643.59;;;33.98;23.04
70458;BME280;57919;56.194;95.716;2023-06-05T06:24:13;98622.00;;;33.75;23.56
70458;BME280;57919;56.194;95.716;2023-06-05T06:34:17;98601.78;;;33.54;23.62
70458;BME280;57919;56.194;95.716;2023-06-05T06:44:19;98578.91;;;33.65;23.85
70458;BME280;57919;56.194;95.716;2023-06-05T06:54:21;98557.47;;;33.93;23.45
70458;BME280;57919;56.194;95.716;2023-06-05T07:04:23;98551.28;;;34.29;23.54
70458;BME280;57919;56.194;95.716;2023-06-05T07:14:25;98525.63;;;34.03;23.37
70458;BME280;57919;56.194;95.716;2023-06-05T07:24:28;98507.78;;;33.75;23.38
70458;BME280;57919;56.194;95.716;2023-06-05T07:34:31;98487.97;;;33.48;24.44
70458;BME280;57919;56.194;95.716;2023-06-05T07:44:34;98463.75;;;32.66;25.44
70458;BME280;57919;56.194;95.716;2023-06-05T07:54:36;98454.56;;;33.08;24.34
70458;BME280;57919;56.194;95.716;2023-06-05T08:04:38;98444.06;;;33.19;24.82
70458;BME280;57919;56.194;95.716;2023-06-05T08:14:40;98425.00;;;33.40;24.30
70458;BME280;57919;56.194;95.716;2023-06-05T08:24:42;98406.78;;;33.19;24.99
70458;BME280;57919;56.194;95.716;2023-06-05T08:34:44;98387.63;;;33.45;25.63
70458;BME280;57919;56.194;95.716;2023-06-05T08:44:46;98361.00;;;33.23;25.20
70458;BME280;57919;56.194;95.716;2023-06-05T08:54:49;98358.50;;;32.84;25.15
70458;BME280;57919;56.194;95.716;2023-06-05T09:04:51;98350.81;;;32.47;26.38
70458;BME280;57919;56.194;95.716;2023-06-05T09:14:54;98344.53;;;32.36;26.23
70458;BME280;57919;56.194;95.716;2023-06-05T09:24:56;98334.59;;;32.20;26.94
70458;BME280;57919;56.194;95.716;2023-06-05T09:34:59;98318.63;;;31.97;26.92
70458;BME280;57919;56.194;95.716;2023-06-05T09:45:07;98315.94;;;31.87;27.67
70458;BME280;57919;56.194;95.716;2023-06-05T09:55:09;98291.41;;;31.78;27.81
70458;BME280;57919;56.194;95.716;2023-06-05T10:05:12;98281.59;;;31.18;28.92
70458;BME280;57919;56.194;95.716;2023-06-05T10:15:15;98265.28;;;30.96;29.12
70458;BME280;57919;56.194;95.716;2023-06-05T10:25:19;98253.00;;;30.92;29.71
70458;BME280;57919;56.194;95.716;2023-06-05T10:45:44;98258.28;;;30.49;29.69
70458;BME280;57919;56.194;95.716;2023-06-05T10:55:47;98243.59;;;30.34;30.51
70458;BME280;57919;56.194;95.716;2023-06-05T11:06:12;98238.50;;;30.46;30.73
70458;BME280;57919;56.194;95.716;2023-06-05T11:16:31;98234.69;;;30.27;31.26
70458;BME280;57919;56.194;95.716;2023-06-05T11:26:41;98214.06;;;30.23;31.66
70458;BME280;57919;56.194;95.716;2023-06-05T11:36:44;98210.25;;;29.98;31.95
70458;BME280;57919;56.194;95.716;2023-06-05T11:46:49;98206.09;;;29.90;32.16
70458;BME280;57919;56.194;95.716;2023-06-05T11:56:56;98196.09;;;29.84;32.13
70458;BME280;57919;56.194;95.716;2023-06-05T12:06:59;98201.34;;;29.91;32.38
70458;BME280;57919;56.194;95.716;2023-06-05T12:17:09;98179.91;;;29.86;31.94
70458;BME280;57919;56.194;95.716;2023-06-05T12:27:12;98165.41;;;29.84;32.54
70458;BME280;57919;56.194;95.716;2023-06-05T12:37:29;98148.69;;;29.79;32.28
70458;BME280;57919;56.194;95.716;2023-06-05T12:47:34;98128.16;;;29.60;32.72
70458;BME280;57919;56.194;95.716;2023-06-05T12:57:36;98121.56;;;29.20;33.48
70458;BME280;57919;56.194;95.716;2023-06-05T13:07:38;98104.38;;;28.88;33.82
70458;BME280;57919;56.194;95.716;2023-06-05T13:17:41;98115.50;;;28.52;34.79
70458;BME280;57919;56.194;95.716;2023-06-05T13:27:44;98126.91;;;28.25;35.15
70458;BME280;57919;56.194;95.716;2023-06-05T13:37:46;98142.69;;;27.99;35.80
70458;BME280;57919;56.194;95.716;2023-06-05T13:47:50;98252.47;;;27.08;42.26
70458;BME280;57919;56.194;95.716;2023-06-05T13:57:53;98274.63;;;24.94;51.75
70458;BME280;57919;56.194;95.716;2023-06-05T14:07:55;98272.00;;;23.74;55.24
70458;BME280;57919;56.194;95.716;2023-06-05T14:17:57;98263.97;;;23.49;55.56
70458;BME280;57919;56.194;95.716;2023-06-05T14:27:59;98237.81;;;23.28;56.75
70458;BME280;57919;56.194;95.716;2023-06-05T14:38:01;98250.53;;;22.94;59.93
70458;BME280;57919;56.194;95.716;2023-06-05T14:48:03;98282.38;;;22.78;59.85
70458;BME280;57919;56.194;95.716;2023-06-05T14:58:04;98323.81;;;22.12;63.75
70458;BME280;57919;56.194;95.716;2023-06-05T15:08:09;98323.66;;;21.88;62.90
70458;BME280;57919;56.194;95.716;2023-06-05T15:18:11;98341.63;;;21.73;63.15
70458;BME280;57919;56.194;95.716;2023-06-05T15:28:13;98364.69;;;21.53;63.69
70458;BME280;57919;56.194;95.716;2023-06-05T15:38:17;98376.72;;;21.34;63.94
70458;BME280;57919;56.194;95.716;2023-06-05T15:48:20;98382.72;;;21.24;63.90
70458;BME280;57919;56.194;95.716;2023-06-05T15:58:22;98382.94;;;21.23;63.34
70458;BME280;57919;56.194;95.716;2023-06-05T16:08:24;98394.13;;;21.21;63.51
70458;BME280;57919;56.194;95.716;2023-06-05T16:18:26;98408.53;;;20.92;64.07
70458;BME280;57919;56.194;95.716;2023-06-05T16:28:28;98408.03;;;20.70;64.66
70458;BME280;57919;56.194;95.716;2023-06-05T16:38:30;98411.97;;;20.43;65.31
70458;BME280;57919;56.194;95.716;2023-06-05T16:48:31;98421.78;;;20.06;66.45
70458;BME280;57919;56.194;95.716;2023-06-05T16:58:33;98447.63;;;19.65;69.08
70458;BME280;57919;56.194;95.716;2023-06-05T17:08:35;98442.94;;;19.39;71.13
70458;BME280;57919;56.194;95.716;2023-06-05T17:18:37;98481.34;;;19.46;70.64
70458;BME280;57919;56.194;95.716;2023-06-05T17:28:39;98485.56;;;19.42;70.22
70458;BME280;57919;56.194;95.716;2023-06-05T17:38:41;98479.22;;;19.34;70.14
70458;BME280;57919;56.194;95.716;2023-06-05T17:48:43;98488.25;;;19.09;70.57
70458;BME280;57919;56.194;95.716;2023-06-05T17:58:45;98492.41;;;18.85;71.15
70458;BME280;57919;56.194;95.716;2023-06-05T18:08:49;98486.59;;;18.60;72.85
70458;BME280;57919;56.194;95.716;2023-06-05T18:18:51;98501.69;;;18.43;72.87
70458;BME280;57919;56.194;95.716;2023-06-05T18:28:53;98502.94;;;18.40;72.10
70458;BME280;57919;56.194;95.716;2023-06-05T18:38:55;98503.06;;;18.25;72.24
70458;BME280;57919;56.194;95.716;2023-06-05T18:48:57;98514.84;;;18.19;72.25
70458;BME280;57919;56.194;95.716;2023-06-05T18:58:59;98520.47;;;18.11;72.27
70458;BME280;57919;56.194;95.716;2023-06-05T19:09:01;98526.34;;;18.08;72.08
70458;BME280;57919;56.194;95.716;2023-06-05T19:19:03;98522.91;;;17.99;72.31
70458;BME280;57919;56.194;95.716;2023-06-05T19:29:05;98521.53;;;17.82;72.76
70458;BME280;57919;56.194;95.716;2023-06-05T19:39:07;98527.97;;;17.74;72.91
70458;BME280;57919;56.194;95.716;2023-06-05T19:49:09;98531.88;;;17.65;73.48
70458;BME280;57919;56.194;95.716;2023-06-05T19:59:11;98547.38;;;17.58;73.64
70458;BME280;57919;56.194;95.716;2023-06-05T20:09:14;98553.78;;;17.44;73.46
70458;BME280;57919;56.194;95.716;2023-06-05T20:19:16;98572.44;;;17.40;74.28
70458;BME280;57919;56.194;95.716;2023-06-05T20:29:18;98574.47;;;17.32;74.73
70458;BME280;57919;56.194;95.716;2023-06-05T20:39:22;98580.50;;;17.27;75.94
70458;BME280;57919;56.194;95.716;2023-06-05T20:49:23;98587.09;;;17.33;75.53
70458;BME280;57919;56.194;95.716;2023-06-05T20:59:25;98590.94;;;17.38;75.25
70458;BME280;57919;56.194;95.716;2023-06-05T21:09:27;98607.53;;;17.37;75.33
70458;BME280;57919;56.194;95.716;2023-06-05T21:19:29;98620.28;;;17.30;76.58
70458;BME280;57919;56.194;95.716;2023-06-05T21:29:31;98637.63;;;17.37;75.85
70458;BME280;57919;56.194;95.716;2023-06-05T21:39:33;98636.91;;;17.50;75.87
70458;BME280;57919;56.194;95.716;2023-06-05T21:49:34;98635.06;;;17.71;75.41
70458;BME280;57919;56.194;95.716;2023-06-05T21:59:37;98648.69;;;18.35;73.81
70458;BME280;57919;56.194;95.716;2023-06-05T22:09:39;98664.09;;;18.99;72.01
70458;BME280;57919;56.194;95.716;2023-06-05T22:19:41;98665.31;;;19.31;70.82
70458;BME280;57919;56.194;95.716;2023-06-05T22:29:43;98677.94;;;19.66;69.69
70458;BME280;57919;56.194;95.716;2023-06-05T22:39:45;98686.41;;;19.85;69.01
70458;BME280;57919;56.194;95.716;2023-06-05T22:49:47;98705.69;;;20.05;68.73
70458;BME280;57919;56.194;95.716;2023-06-05T22:59:54;98703.19;;;20.29;68.33
70458;BME280;57919;56.194;95.716;2023-06-05T23:09:58;98713.78;;;20.79;66.96
70458;BME280;57919;56.194;95.716;2023-06-05T23:20:00;98727.44;;;21.32;65.57
70458;BME280;57919;56.194;95.716;2023-06-05T23:30:05;98731.09;;;22.46;62.74
70458;BME280;57919;56.194;95.716;2023-06-05T23:40:08;98729.28;;;23.51;59.10
70458;BME280;57919;56.194;95.716;2023-06-05T23:50:11;98743.84;;;24.25;57.57
